Time;durP1;ratioP1;P1;durP2;ratioP2;P2;SDS_P1;SDS_P2;PMS_P1;PMS_P2;Temp;Humidity;BMP_temperature;BMP_pressure;BME280_temperature;BME280_humidity;BME280_pressure;Samples;Min_cycle;Max_cycle;Signal;HPM_P1;HPM_P2
2021/08/29 00:00:17;;;;;;;;;;;;;;;14.17;100.00;100846.69;5072783;28;20237;-65
2021/08/29 00:02:44;;;;;;;;;;;;;;;14.19;100.00;100841.06;5072579;28;20407;-64
2021/08/29 00:05:10;;;;;;;;;;;;;;;14.17;100.00;100834.91;5072239;28;20023;-65
2021/08/29 00:07:36;;;;;;;;;;;;;;;14.19;100.00;100838.34;5071511;28;20019;-65
2021/08/29 00:10:03;;;;;;;;;;;;;;;14.19;100.00;100841.97;5072739;28;20471;-70
2021/08/29 00:12:29;;;;;;;;;;;;;;;14.18;100.00;100837.50;5072670;28;20383;-70
2021/08/29 00:14:56;;;;;;;;;;;;;;;14.19;100.00;100841.06;5072186;28;20148;-70
2021/08/29 00:17:23;;;;;;;;;;;;;;;14.21;100.00;100830.88;5072336;28;20015;-70
2021/08/29 00:19:49;;;;;;;;;;;;;;;14.22;100.00;100835.34;5072066;28;20294;-70
2021/08/29 00:22:16;;;;;;;;;;;;;;;14.24;100.00;100836.03;5072431;28;19925;-70
2021/08/29 00:24:42;;;;;;;;;;;;;;;14.26;100.00;100841.34;5054088;28;20339;-70
2021/08/29 00:27:08;;;;;;;;;;;;;;;14.26;100.00;100834.03;5071943;28;19960;-70
2021/08/29 00:29:37;;;;;;;;;;;;;;;14.28;100.00;100834.75;5054722;28;19928;-70
2021/08/29 00:32:04;;;;;;;;;;;;;;;14.25;100.00;100835.03;5054260;28;19936;-70
2021/08/29 00:34:31;;;;;;;;;;;;;;;14.26;100.00;100834.03;5071893;28;19924;-70
2021/08/29 00:36:58;;;;;;;;;;;;;;;14.27;100.00;100834.91;5053683;28;19924;-70
2021/08/29 00:39:24;;;;;;;;;;;;;;;14.27;100.00;100837.63;5054164;28;20014;-70
2021/08/29 00:41:51;;;;;;;;;;;;;;;14.26;100.00;100833.16;5053951;28;19925;-70
2021/08/29 00:44:18;;;;;;;;;;;;;;;14.27;100.00;100832.16;5054082;28;20372;-70
2021/08/29 00:46:46;;;;;;;;;;;;;;;14.28;100.00;100832.00;5071373;28;20487;-70
2021/08/29 00:49:13;;;;;;;;;;;;;;;14.28;100.00;100817.50;5053794;28;19928;-70
2021/08/29 00:51:41;;;;;;;;;;;;;;;14.28;100.00;100825.69;5054066;28;19929;-65
2021/08/29 00:54:07;;;;;;;;;;;;;;;14.30;100.00;100818.25;5053694;28;20441;-65
2021/08/29 00:56:35;;;;;;;;;;;;;;;14.29;100.00;100827.44;5053871;28;19925;-65
2021/08/29 00:59:05;;;;;;;;;;;;;;;14.26;100.00;100812.19;5053363;28;19929;-65
2021/08/29 01:01:40;;;;;;;;;;;;;;;14.26;100.00;100811.31;5053785;28;19975;-65
2021/08/29 01:04:08;;;;;;;;;;;;;;;14.26;100.00;100806.75;5053626;28;20055;-65
2021/08/29 01:06:39;;;;;;;;;;;;;;;14.28;100.00;100814.78;5071159;28;19925;-65
2021/08/29 01:09:17;;;;;;;;;;;;;;;14.24;100.00;100808.75;5071806;28;20345;-65
2021/08/29 01:11:46;;;;;;;;;;;;;;;14.22;100.00;100817.09;5053649;28;19924;-68
2021/08/29 01:14:14;;;;;;;;;;;;;;;14.23;100.00;100816.09;5053626;28;19931;-69
2021/08/29 01:16:43;;;;;;;;;;;;;;;14.23;100.00;100820.69;5053284;28;19924;-68
2021/08/29 01:19:11;;;;;;;;;;;;;;;14.23;100.00;100813.34;5052422;28;20011;-70
2021/08/29 01:21:41;;;;;;;;;;;;;;;14.25;100.00;100809.63;5053423;28;19925;-70
2021/08/29 01:24:13;;;;;;;;;;;;;;;14.24;100.00;100819.66;5053539;28;20066;-70
2021/08/29 01:26:46;;;;;;;;;;;;;;;14.25;100.00;100821.41;5053318;28;20384;-70
2021/08/29 01:29:15;;;;;;;;;;;;;;;14.28;100.00;100820.25;5053477;28;19947;-70
2021/08/29 01:31:42;;;;;;;;;;;;;;;14.26;100.00;100820.41;5071303;28;19970;-70
2021/08/29 01:34:11;;;;;;;;;;;;;;;14.25;100.00;100820.53;5071145;28;19960;-70
2021/08/29 01:36:40;;;;;;;;;;;;;;;14.25;100.00;100818.66;5071600;28;19925;-70
2021/08/29 01:39:12;;;;;;;;;;;;;;;14.24;100.00;100814.22;5053328;28;19963;-65
2021/08/29 01:41:39;;;;;;;;;;;;;;;14.23;100.00;100815.25;5052933;28;19924;-65
2021/08/29 01:44:06;;;;;;;;;;;;;;;14.23;100.00;100812.50;5053314;28;20387;-65
2021/08/29 01:46:36;;;;;;;;;;;;;;;14.21;100.00;100811.78;5053215;28;20027;-65
2021/08/29 01:49:08;;;;;;;;;;;;;;;14.23;100.00;100813.34;5052769;28;20399;-65
2021/08/29 01:51:37;;;;;;;;;;;;;;;14.22;100.00;100806.16;5053348;28;19932;-65
2021/08/29 01:54:21;;;;;;;;;;;;;;;14.22;100.00;100810.78;5071030;28;20415;-65
2021/08/29 01:57:14;;;;;;;;;;;;;;;14.23;100.00;100809.78;5052948;28;19925;-65
2021/08/29 01:59:44;;;;;;;;;;;;;;;14.22;100.00;100806.16;5052918;28;20395;-65
2021/08/29 02:02:16;;;;;;;;;;;;;;;14.23;100.00;100804.31;5070961;28;19929;-65
2021/08/29 02:04:43;;;;;;;;;;;;;;;14.21;100.00;100809.06;5053168;28;20418;-69
2021/08/29 02:07:15;;;;;;;;;;;;;;;14.20;100.00;100810.94;5053061;28;20253;-65
2021/08/29 02:09:44;;;;;;;;;;;;;;;14.21;100.00;100807.16;5071047;28;19932;-65
2021/08/29 02:12:15;;;;;;;;;;;;;;;14.22;100.00;100811.63;5053191;28;20001;-70
2021/08/29 02:14:45;;;;;;;;;;;;;;;14.22;100.00;100803.44;5052939;28;20407;-70
2021/08/29 02:17:13;;;;;;;;;;;;;;;14.22;100.00;100811.63;5052502;28;20303;-70
2021/08/29 02:19:42;;;;;;;;;;;;;;;14.23;100.00;100812.50;5052860;28;19925;-70
2021/08/29 02:22:10;;;;;;;;;;;;;;;14.21;100.00;100812.63;5053194;28;19929;-70
2021/08/29 02:24:40;;;;;;;;;;;;;;;14.20;100.00;100804.59;5052803;28;19928;-70
2021/08/29 02:27:12;;;;;;;;;;;;;;;14.21;100.00;100811.78;5052855;28;19956;-70
2021/08/29 02:29:39;;;;;;;;;;;;;;;14.18;100.00;100803.88;5053362;28;20281;-70
2021/08/29 02:32:07;;;;;;;;;;;;;;;14.14;100.00;100807.94;5056329;28;19925;-70
2021/08/29 02:34:34;;;;;;;;;;;;;;;14.13;100.00;100803.47;5056198;28;19925;-70
2021/08/29 02:37:03;;;;;;;;;;;;;;;14.10;100.00;100801.03;5056100;28;19924;-70
2021/08/29 02:39:42;;;;;;;;;;;;;;;14.07;100.00;100803.03;5056538;28;19925;-70
2021/08/29 02:42:10;;;;;;;;;;;;;;;14.10;100.00;100801.88;5056093;28;20388;-70
2021/08/29 02:44:44;;;;;;;;;;;;;;;14.10;100.00;100799.16;5056163;28;20399;-65
2021/08/29 02:47:12;;;;;;;;;;;;;;;14.05;100.00;100798.72;5056156;28;20412;-65
2021/08/29 02:49:39;;;;;;;;;;;;;;;14.02;100.00;100802.59;5056201;28;20315;-65
2021/08/29 02:52:08;;;;;;;;;;;;;;;13.99;100.00;100800.19;5056085;28;20069;-65
2021/08/29 02:54:35;;;;;;;;;;;;;;;14.00;100.00;100795.56;5055831;28;20453;-70
2021/08/29 02:57:03;;;;;;;;;;;;;;;14.01;100.00;100791.84;5073450;28;19931;-70
2021/08/29 02:59:29;;;;;;;;;;;;;;;14.02;100.00;100788.13;5055909;28;19930;-70
2021/08/29 03:01:56;;;;;;;;;;;;;;;14.03;100.00;100792.53;5073878;28;20094;-70
2021/08/29 03:04:28;;;;;;;;;;;;;;;13.99;100.00;100794.72;5072645;28;20364;-70
2021/08/29 03:06:55;;;;;;;;;;;;;;;14.00;100.00;100793.72;5055764;28;19924;-70
2021/08/29 03:09:23;;;;;;;;;;;;;;;14.01;100.00;100791.84;5055825;28;19929;-70
2021/08/29 03:11:52;;;;;;;;;;;;;;;14.02;100.00;100796.28;5055981;28;19929;-70
2021/08/29 03:14:41;;;;;;;;;;;;;;;14.03;100.00;100789.81;5073566;28;19924;-65
2021/08/29 03:17:10;;;;;;;;;;;;;;;14.04;100.00;100781.50;5055172;28;20015;-65
2021/08/29 03:19:44;;;;;;;;;;;;;;;14.06;100.00;100778.63;5055639;28;20019;-65
2021/08/29 03:22:24;;;;;;;;;;;;;;;14.05;100.00;100777.75;5055530;28;19925;-70
2021/08/29 03:24:55;;;;;;;;;;;;;;;14.07;100.00;100778.47;5055379;28;19928;-70
2021/08/29 03:27:21;;;;;;;;;;;;;;;14.09;100.00;100777.47;5055245;28;19925;-70
2021/08/29 03:29:48;;;;;;;;;;;;;;;14.09;100.00;100777.47;5055220;28;20019;-70
2021/08/29 03:32:15;;;;;;;;;;;;;;;14.09;100.00;100778.31;5055411;28;19931;-70
2021/08/29 03:34:42;;;;;;;;;;;;;;;14.11;100.00;100779.06;5055357;28;20271;-68
2021/08/29 03:37:10;;;;;;;;;;;;;;;14.10;100.00;100774.59;5055080;28;20273;-68
2021/08/29 03:39:44;;;;;;;;;;;;;;;14.13;100.00;100763.38;5055231;28;19925;-68
2021/08/29 03:42:12;;;;;;;;;;;;;;;14.13;100.00;100771.56;5072249;28;19998;-69
2021/08/29 03:44:40;;;;;;;;;;;;;;;14.15;100.00;100777.75;5054439;28;19925;-68
2021/08/29 03:47:07;;;;;;;;;;;;;;;14.15;100.00;100777.75;5054939;28;19974;-68
2021/08/29 03:49:39;;;;;;;;;;;;;;;14.15;100.00;100775.00;5055243;28;19928;-68
2021/08/29 03:52:07;;;;;;;;;;;;;;;14.14;100.00;100764.25;5054534;28;19935;-70
2021/08/29 03:54:56;;;;;;;;;;;;;;;14.13;100.00;100770.72;5072903;28;20384;-70
2021/08/29 03:57:24;;;;;;;;;;;;;;;14.11;100.00;100768.13;5072525;28;20015;-65
2021/08/29 03:59:51;;;;;;;;;;;;;;;14.13;100.00;100765.25;5054874;28;19924;-70
2021/08/29 04:02:17;;;;;;;;;;;;;;;14.13;100.00;100773.44;5054848;28;19928;-70
2021/08/29 04:04:44;;;;;;;;;;;;;;;14.13;100.00;100771.56;5054529;28;20380;-71
2021/08/29 04:07:10;;;;;;;;;;;;;;;14.14;100.00;100781.47;5054825;28;20252;-71
2021/08/29 04:10:02;;;;;;;;;;;;;;;14.13;100.00;100771.56;5054842;28;19925;-70
2021/08/29 04:12:33;;;;;;;;;;;;;;;14.14;100.00;100781.47;5054785;28;19978;-70
2021/08/29 04:15:31;;;;;;;;;;;;;;;14.15;100.00;100783.19;5072214;28;19928;-70
2021/08/29 04:17:58;;;;;;;;;;;;;;;14.13;100.00;100778.91;5054227;28;19931;-70
2021/08/29 04:20:25;;;;;;;;;;;;;;;14.14;100.00;100786.94;5054532;28;20034;-70
2021/08/29 04:22:51;;;;;;;;;;;;;;;14.13;100.00;100792.53;5072178;28;19928;-70
2021/08/29 04:25:18;;;;;;;;;;;;;;;14.15;100.00;100793.25;5054267;28;19924;-70
2021/08/29 04:27:46;;;;;;;;;;;;;;;14.16;100.00;100800.44;5054280;28;19932;-70
2021/08/29 04:30:12;;;;;;;;;;;;;;;14.16;100.00;100798.59;5054438;28;20006;-70
2021/08/29 04:32:41;;;;;;;;;;;;;;;14.14;100.00;100784.19;5054353;28;20031;-70
2021/08/29 04:35:11;;;;;;;;;;;;;;;14.13;100.00;100795.28;5053995;28;19932;-64
2021/08/29 04:37:42;;;;;;;;;;;;;;;14.08;100.00;100795.69;5054126;28;19974;-64
2021/08/29 04:40:13;;;;;;;;;;;;;;;14.04;100.00;100791.53;5053799;28;19948;-65
2021/08/29 04:42:50;;;;;;;;;;;;;;;14.02;100.00;100786.22;5054105;28;19928;-65
2021/08/29 04:45:17;;;;;;;;;;;;;;;13.98;100.00;100786.69;5054121;28;19948;-65
2021/08/29 04:47:46;;;;;;;;;;;;;;;13.96;100.00;100788.69;5053856;28;19925;-65
2021/08/29 04:50:13;;;;;;;;;;;;;;;13.96;100.00;100795.00;5054067;28;19928;-65
2021/08/29 04:52:40;;;;;;;;;;;;;;;14.02;100.00;100796.28;5053864;28;19935;-65
2021/08/29 04:55:08;;;;;;;;;;;;;;;13.99;100.00;100794.72;5053531;28;19924;-65
2021/08/29 04:57:37;;;;;;;;;;;;;;;14.01;100.00;100798.16;5053754;28;19931;-65
2021/08/29 05:00:05;;;;;;;;;;;;;;;14.04;100.00;100797.88;5071624;28;19924;-65
2021/08/29 05:02:33;;;;;;;;;;;;;;;14.03;100.00;100790.69;5053849;28;19924;-65
2021/08/29 05:05:00;;;;;;;;;;;;;;;14.01;100.00;100794.56;5053494;28;19925;-65
2021/08/29 05:07:27;;;;;;;;;;;;;;;14.00;100.00;100791.00;5053724;28;19931;-65
2021/08/29 05:09:53;;;;;;;;;;;;;;;14.02;100.00;100788.13;5053777;28;19924;-65
2021/08/29 05:12:19;;;;;;;;;;;;;;;14.03;100.00;100789.81;5053704;28;19974;-65
2021/08/29 05:14:46;;;;;;;;;;;;;;;14.02;100.00;100796.28;5053453;28;19964;-65
2021/08/29 05:17:14;;;;;;;;;;;;;;;14.02;100.00;100790.84;5053227;28;19956;-65
2021/08/29 05:19:49;;;;;;;;;;;;;;;14.00;100.00;100790.09;5053525;28;19929;-65
2021/08/29 05:22:47;;;;;;;;;;;;;;;13.99;100.00;100793.84;5037263;28;20014;-65
2021/08/29 05:25:46;;;;;;;;;;;;;;;13.95;100.00;100797.88;5071218;28;20391;-70
2021/08/29 05:28:12;;;;;;;;;;;;;;;13.97;100.00;100798.59;5053332;28;20280;-70
2021/08/29 05:30:39;;;;;;;;;;;;;;;14.00;100.00;100806.47;5053558;28;19929;-70
2021/08/29 05:33:08;;;;;;;;;;;;;;;13.98;100.00;100803.06;5053203;28;19946;-66
2021/08/29 05:35:34;;;;;;;;;;;;;;;13.95;100.00;100800.59;5053071;28;19924;-65
2021/08/29 05:38:00;;;;;;;;;;;;;;;13.95;100.00;100800.59;5053236;28;19970;-65
2021/08/29 05:40:52;;;;;;;;;;;;;;;13.92;100.00;100801.75;5070829;28;19924;-66
2021/08/29 05:43:37;;;;;;;;;;;;;;;13.92;100.00;100798.16;5071044;28;19931;-66
2021/08/29 05:46:04;;;;;;;;;;;;;;;13.93;100.00;100806.19;5053074;28;20307;-65
2021/08/29 05:48:31;;;;;;;;;;;;;;;13.94;100.00;100804.34;5053083;28;19971;-66
2021/08/29 05:50:57;;;;;;;;;;;;;;;13.94;100.00;100801.63;5070823;28;19970;-65
2021/08/29 05:53:24;;;;;;;;;;;;;;;13.93;100.00;100794.44;5070991;28;19931;-70
2021/08/29 05:55:56;;;;;;;;;;;;;;;13.90;100.00;100793.72;5052775;28;19924;-70
2021/08/29 05:58:22;;;;;;;;;;;;;;;13.88;100.00;100803.03;5053160;28;19924;-71
2021/08/29 06:00:48;;;;;;;;;;;;;;;13.87;100.00;100804.91;5052771;28;19928;-70
2021/08/29 06:03:15;;;;;;;;;;;;;;;13.88;100.00;100797.59;5053186;28;20566;-70
2021/08/29 06:05:42;;;;;;;;;;;;;;;13.90;100.00;100796.44;5055272;28;19925;-70
2021/08/29 06:08:16;;;;;;;;;;;;;;;13.91;100.00;100800.03;5056153;28;19924;-70
2021/08/29 06:10:43;;;;;;;;;;;;;;;13.86;100.00;100800.47;5056963;28;20272;-70
2021/08/29 06:13:10;;;;;;;;;;;;;;;13.83;100.00;100789.84;5056682;28;20319;-70
2021/08/29 06:15:39;;;;;;;;;;;;;;;13.86;100.00;100791.44;5057025;28;20023;-70
2021/08/29 06:18:09;;;;;;;;;;;;;;;13.87;100.00;100782.25;5056739;28;20386;-68
2021/08/29 06:20:36;;;;;;;;;;;;;;;13.90;100.00;100785.53;5056897;28;20017;-68
2021/08/29 06:23:04;;;;;;;;;;;;;;;13.93;100.00;100788.97;5056996;28;19924;-68
2021/08/29 06:25:49;;;;;;;;;;;;;;;13.92;100.00;100787.25;5074505;28;19932;-68
2021/08/29 06:28:35;;;;;;;;;;;;;;;13.94;100.00;100790.72;5042673;28;19928;-68
2021/08/29 06:31:20;;;;;;;;;;;;;;;13.99;100.00;100788.38;5074307;28;19948;-68
2021/08/29 06:34:05;;;;;;;;;;;;;;;13.99;100.00;100793.84;5074287;28;19936;-69
2021/08/29 06:36:34;;;;;;;;;;;;;;;13.98;100.00;100787.53;5056411;28;19964;-68
2021/08/29 06:39:04;;;;;;;;;;;;;;;14.00;100.00;100795.56;5056056;28;19932;-68
2021/08/29 06:41:30;;;;;;;;;;;;;;;14.03;100.00;100789.81;5074317;28;19970;-68
2021/08/29 06:43:57;;;;;;;;;;;;;;;14.07;100.00;100789.38;5056100;28;19932;-69
2021/08/29 06:46:41;;;;;;;;;;;;;;;14.07;100.00;100786.66;5073982;28;19947;-68
2021/08/29 06:49:43;;;;;;;;;;;;;;;14.04;100.00;100780.63;5012149;28;19926;-68
2021/08/29 06:52:27;;;;;;;;;;;;;;;14.06;100.00;100779.47;5069025;28;19947;-65
2021/08/29 06:55:14;;;;;;;;;;;;;;;14.10;100.00;100780.06;5073826;28;19931;-65
2021/08/29 06:58:18;;;;;;;;;;;;;;;14.10;100.00;100771.84;5073843;28;19925;-68
2021/08/29 07:00:44;;;;;;;;;;;;;;;14.12;100.00;100778.00;5055864;28;19928;-70
2021/08/29 07:03:12;;;;;;;;;;;;;;;14.21;100.00;100781.75;5055806;28;20328;-68
2021/08/29 07:05:38;;;;;;;;;;;;;;;14.27;100.00;100785.75;5055740;28;19924;-68
2021/08/29 07:08:19;;;;;;;;;;;;;;;14.28;100.00;100777.41;5055908;28;19935;-65
2021/08/29 07:10:47;;;;;;;;;;;;;;;14.30;100.00;100777.28;5056016;28;20031;-65
2021/08/29 07:13:32;;;;;;;;;;;;;;;14.32;100.00;100788.91;5073771;28;19924;-65
2021/08/29 07:15:58;;;;;;;;;;;;;;;14.36;100.00;100784.88;5055471;28;19925;-65
2021/08/29 07:18:24;;;;;;;;;;;;;;;14.32;100.00;100777.97;5073435;28;19924;-65
2021/08/29 07:21:09;;;;;;;;;;;;;;;14.30;100.00;100777.28;5073222;28;19935;-65
2021/08/29 07:24:05;;;;;;;;;;;;;;;14.28;100.00;100787.47;5073116;28;19924;-65
2021/08/29 07:26:55;;;;;;;;;;;;;;;14.29;100.00;100783.75;5073113;28;19956;-65
2021/08/29 07:29:40;;;;;;;;;;;;;;;14.33;100.00;100780.56;5073274;28;19931;-65
2021/08/29 07:32:32;;;;;;;;;;;;;;;14.38;100.00;100782.88;5049549;28;20451;-64
2021/08/29 07:34:58;;;;;;;;;;;;;;;14.38;100.00;100780.13;5055137;28;20411;-65
2021/08/29 07:37:33;;;;;;;;;;;;;;;14.36;100.00;100782.13;5073298;28;19925;-65
2021/08/29 07:40:01;;;;;;;;;;;;;;;14.33;100.00;100774.25;5054913;28;19932;-65
2021/08/29 07:42:29;;;;;;;;;;;;;;;14.29;100.00;100775.56;5055474;28;19931;-65
2021/08/29 07:44:55;;;;;;;;;;;;;;;14.30;100.00;100775.41;5072646;28;19964;-66
2021/08/29 07:47:26;;;;;;;;;;;;;;;14.38;100.00;100782.88;5055168;28;19931;-65
2021/08/29 07:49:52;;;;;;;;;;;;;;;14.45;100.00;100789.44;5055200;28;19966;-65
2021/08/29 07:52:20;;;;;;;;;;;;;;;14.50;100.00;100786.28;5055140;28;20398;-65
2021/08/29 07:55:05;;;;;;;;;;;;;;;14.65;100.00;100794.88;5072775;28;20013;-65
2021/08/29 07:58:00;;;;;;;;;;;;;;;14.70;100.00;100789.84;5068088;28;19924;-71
2021/08/29 08:00:30;;;;;;;;;;;;;;;14.76;100.00;100791.94;5054963;28;19971;-72
2021/08/29 08:03:15;;;;;;;;;;;;;;;14.84;100.00;100788.47;5072674;28;19933;-66
2021/08/29 08:06:16;;;;;;;;;;;;;;;15.01;100.00;100797.75;5010465;28;19929;-66
2021/08/29 08:09:08;;;;;;;;;;;;;;;15.12;100.00;100802.97;5070096;28;20031;-66
2021/08/29 08:11:41;;;;;;;;;;;;;;;15.17;100.00;100797.91;5072549;28;20150;-66
2021/08/29 08:14:09;;;;;;;;;;;;;;;15.21;100.00;100795.75;5054523;28;19928;-67
2021/08/29 08:16:35;;;;;;;;;;;;;;;15.34;100.00;100798.97;5072145;28;19928;-66
2021/08/29 08:19:09;;;;;;;;;;;;;;;15.43;100.00;100802.66;5054410;28;19928;-71
2021/08/29 08:21:35;;;;;;;;;;;;;;;15.54;100.00;100805.16;5054465;28;19935;-72
2021/08/29 08:24:40;;;;;;;;;;;;;;;15.48;100.00;100807.66;5056639;28;19924;-66
2021/08/29 08:27:25;;;;;;;;;;;;;;;15.53;100.00;100808.06;5071566;28;19947;-66
2021/08/29 08:30:12;;;;;;;;;;;;;;;15.64;100.00;100807.81;5072089;28;20399;-67
2021/08/29 08:32:59;;;;;;;;;;;;;;;15.74;100.00;100807.75;5040639;28;19924;-66
2021/08/29 08:35:52;;;;;;;;;;;;;;;16.00;100.00;100810.56;5053693;28;19928;-72
2021/08/29 08:38:37;;;;;;;;;;;;;;;16.26;100.00;100797.94;5071775;28;20422;-70
2021/08/29 08:41:20;;;;;;;;;;;;;;;16.57;100.00;100790.97;5053828;28;19928;-71
2021/08/29 08:44:12;;;;;;;;;;;;;;;16.48;100.00;100785.59;5071670;28;19928;-71
2021/08/29 08:47:01;;;;;;;;;;;;;;;16.41;100.00;100779.91;5071582;28;19931;-69
2021/08/29 08:49:46;;;;;;;;;;;;;;;16.48;100.00;100786.44;5071682;28;19924;-68
2021/08/29 08:52:31;;;;;;;;;;;;;;;16.52;100.00;100787.84;5071463;28;20371;-69
2021/08/29 08:55:27;;;;;;;;;;;;;;;16.48;100.00;100788.34;5016872;28;19930;-69
2021/08/29 08:58:12;;;;;;;;;;;;;;;16.54;100.00;100783.06;5071582;28;19990;-69
2021/08/29 09:00:45;;;;;;;;;;;;;;;16.61;100.00;100779.66;5053679;28;19928;-69
2021/08/29 09:03:38;;;;;;;;;;;;;;;16.73;100.00;100790.19;5053573;28;19931;-71
2021/08/29 09:06:09;;;;;;;;;;;;;;;16.73;100.00;100786.59;5053713;28;20043;-72
2021/08/29 09:08:36;;;;;;;;;;;;;;;16.85;100.00;100787.13;5053403;28;19932;-72
2021/08/29 09:11:02;;;;;;;;;;;;;;;16.98;100.00;100786.72;5071310;28;20527;-70
2021/08/29 09:13:52;;;;;;;;;;;;;;;17.18;100.00;100779.97;5071483;28;19961;-71
2021/08/29 09:16:19;;;;;;;;;;;;;;;17.59;100.00;100781.06;5053397;28;19932;-66
2021/08/29 09:18:49;;;;;;;;;;;;;;;18.09;100.00;100771.00;5053408;28;20272;-65
2021/08/29 09:21:18;;;;;;;;;;;;;;;18.89;100.00;100765.50;5071236;28;19930;-69
2021/08/29 09:23:45;;;;;;;;;;;;;;;19.80;100.00;100748.44;5053273;28;19936;-67
2021/08/29 09:26:32;;;;;;;;;;;;;;;20.78;100.00;100751.25;5071168;28;19925;-67
2021/08/29 09:29:21;;;;;;;;;;;;;;;20.39;100.00;100738.56;5053484;28;19925;-66
2021/08/29 09:31:48;;;;;;;;;;;;;;;20.71;100.00;100740.16;5071336;28;19924;-66
2021/08/29 09:34:23;;;;;;;;;;;;;;;20.73;100.00;100745.47;5053224;28;19978;-67
2021/08/29 09:36:59;;;;;;;;;;;;;;;20.24;100.00;100741.31;5053290;28;20019;-72
2021/08/29 09:39:40;;;;;;;;;;;;;;;19.80;100.00;100736.53;5054030;28;19956;-72
2021/08/29 09:42:17;;;;;;;;;;;;;;;19.59;100.00;100738.09;5057323;28;19929;-72
2021/08/29 09:44:56;;;;;;;;;;;;;;;19.44;100.00;100738.03;5075074;28;19924;-72
2021/08/29 09:47:45;;;;;;;;;;;;;;;19.13;100.00;100752.66;5067235;28;19928;-72
2021/08/29 09:50:33;;;;;;;;;;;;;;;18.52;100.00;100760.59;5075247;28;19936;-66
2021/08/29 09:53:20;;;;;;;;;;;;;;;17.85;100.00;100773.53;5074587;28;19925;-66
2021/08/29 09:56:18;;;;;;;;;;;;;;;17.38;100.00;100768.69;5056604;28;19925;-67
2021/08/29 09:59:10;;;;;;;;;;;;;;;17.06;100.00;100770.28;5050993;28;19928;-67
2021/08/29 10:01:55;;;;;;;;;;;;;;;16.99;100.00;100769.25;5056574;28;20303;-66
2021/08/29 10:04:42;;;;;;;;;;;;;;;17.04;100.00;100770.47;5056963;28;19924;-67
2021/08/29 10:07:11;;;;;;;;;;;;;;;17.06;100.00;100767.56;5056932;28;20367;-69
2021/08/29 10:09:37;;;;;;;;;;;;;;;17.12;100.00;100763.31;5057048;28;19970;-67
2021/08/29 10:12:16;;;;;;;;;;;;;;;17.23;100.00;100755.59;5056805;28;19925;-67
2021/08/29 10:14:44;;;;;;;;;;;;;;;17.65;100.00;100752.94;5056609;28;19924;-68
2021/08/29 10:17:40;;;;;;;;;;;;;;;18.56;100.00;100732.59;5074416;28;20299;-67
2021/08/29 10:20:12;;;;;;;;;;;;;;;19.74;100.00;100713.34;5074352;28;19925;-71
2021/08/29 10:22:59;;;;;;;;;;;;;;;21.09;100.00;100702.41;5074454;28;19931;-70
2021/08/29 10:25:25;;;;;;;;;;;;;;;21.94;100.00;100694.31;5074506;28;20384;-72
2021/08/29 10:27:56;;;;;;;;;;;;;;;22.29;100.00;100683.28;5056348;28;19924;-70
2021/08/29 10:30:41;;;;;;;;;;;;;;;22.71;100.00;100675.91;5056778;28;19924;-70
2021/08/29 10:33:30;;;;;;;;;;;;;;;22.79;100.00;100677.66;5056541;28;19925;-69
2021/08/29 10:36:08;;;;;;;;;;;;;;;23.02;100.00;100678.16;5056126;28;19956;-69
2021/08/29 10:38:54;;;;;;;;;;;;;;;22.57;100.00;100672.22;5074129;28;19932;-70
2021/08/29 10:41:40;;;;;;;;;;;;;;;22.73;100.00;100671.88;5074074;28;19931;-67
2021/08/29 10:44:13;;;;;;;;;;;;;;;22.65;100.00;100674.81;5056070;28;20411;-65
2021/08/29 10:46:59;;;;;;;;;;;;;;;23.56;100.00;100672.75;5073691;28;20374;-65
2021/08/29 10:49:44;;;;;;;;;;;;;;;23.31;100.00;100672.50;5074092;28;19930;-67
2021/08/29 10:52:11;;;;;;;;;;;;;;;23.34;100.00;100677.63;5055689;28;19929;-67
2021/08/29 10:54:50;;;;;;;;;;;;;;;22.78;100.00;100668.47;5056074;28;20014;-67
2021/08/29 10:57:30;;;;;;;;;;;;;;;21.51;100.00;100665.69;5055424;28;19924;-67
2021/08/29 11:00:02;;;;;;;;;;;;;;;21.05;100.00;100691.75;5055963;28;19928;-70
2021/08/29 11:02:36;;;;;;;;;;;;;;;21.10;100.00;100676.50;5056104;28;20425;-67
2021/08/29 11:05:37;;;;;;;;;;;;;;;21.64;100.00;100673.25;5073543;28;19925;-67
2021/08/29 11:08:18;;;;;;;;;;;;;;;22.75;100.00;100677.19;5055124;28;19931;-67
2021/08/29 11:10:47;;;;;;;;;;;;;;;23.65;100.00;100665.94;5055679;28;20023;-66
2021/08/29 11:13:34;;;;;;;;;;;;;;;24.41;100.00;100666.50;5055909;28;19925;-67
2021/08/29 11:16:19;;;;;;;;;;;;;;;23.84;100.00;100667.00;5055292;28;20399;-66
2021/08/29 11:19:11;;;;;;;;;;;;;;;23.18;100.00;100676.97;5073559;28;19935;-66
2021/08/29 11:22:13;;;;;;;;;;;;;;;22.49;100.00;100667.72;5073215;28;19946;-66
2021/08/29 11:25:13;;;;;;;;;;;;;;;21.99;100.00;100687.13;5049425;28;19931;-69
2021/08/29 11:28:01;;;;;;;;;;;;;;;20.99;100.00;100686.16;5055404;28;19924;-69
2021/08/29 11:30:47;;;;;;;;;;;;;;;20.90;100.00;100693.72;5073542;28;19931;-69
2021/08/29 11:33:26;;;;;;;;;;;;;;;20.50;100.00;100676.63;5055213;28;20019;-70
2021/08/29 11:36:29;;;;;;;;;;;;;;;20.23;100.00;100684.50;5063253;28;19928;-69
2021/08/29 11:39:21;;;;;;;;;;;;;;;19.93;100.00;100676.19;5073004;28;20026;-69
2021/08/29 11:42:10;;;;;;;;;;;;;;;19.68;100.00;100689.31;5054879;28;19924;-69
2021/08/29 11:44:38;;;;;;;;;;;;;;;19.47;100.00;100688.09;5054988;28;19925;-66
2021/08/29 11:47:05;;;;;;;;;;;;;;;19.37;100.00;100682.00;5055042;28;19978;-69
2021/08/29 11:49:52;;;;;;;;;;;;;;;18.79;100.00;100679.59;5055237;28;19925;-69
2021/08/29 11:52:26;;;;;;;;;;;;;;;18.52;100.00;100684.50;5054919;28;20352;-66
2021/08/29 11:55:02;;;;;;;;;;;;;;;18.62;100.00;100687.03;5054744;28;19924;-66
2021/08/29 11:57:29;;;;;;;;;;;;;;;18.68;100.00;100689.09;5053186;28;19924;-71
2021/08/29 12:00:07;;;;;;;;;;;;;;;18.72;100.00;100693.19;5054935;28;19934;-71
2021/08/29 12:02:48;;;;;;;;;;;;;;;18.60;100.00;100702.88;5053886;28;20057;-66
2021/08/29 12:05:20;;;;;;;;;;;;;;;18.53;100.00;100699.97;5054708;28;19966;-66
2021/08/29 12:07:48;;;;;;;;;;;;;;;18.51;100.00;100693.78;5072547;28;20011;-66
2021/08/29 12:10:33;;;;;;;;;;;;;;;18.55;100.00;100697.88;5072511;28;19998;-71
2021/08/29 12:13:29;;;;;;;;;;;;;;;18.66;100.00;100684.81;5072232;28;20024;-71
2021/08/29 12:16:16;;;;;;;;;;;;;;;18.80;100.00;100689.53;5072511;28;20087;-71
2021/08/29 12:18:50;;;;;;;;;;;;;;;18.98;100.00;100691.19;5054105;28;19996;-71
2021/08/29 12:21:22;;;;;;;;;;;;;;;19.15;100.00;100689.22;5054425;28;19924;-71
2021/08/29 12:24:09;;;;;;;;;;;;;;;19.21;100.00;100689.34;5054203;28;20383;-71
2021/08/29 12:26:37;;;;;;;;;;;;;;;19.08;100.00;100686.34;5053974;28;19932;-71
2021/08/29 12:29:07;;;;;;;;;;;;;;;18.98;100.00;100688.44;5054119;28;19928;-71
2021/08/29 12:31:39;;;;;;;;;;;;;;;18.90;100.00;100684.69;5054173;28;19924;-69
2021/08/29 12:34:06;;;;;;;;;;;;;;;19.08;100.00;100683.59;5037416;28;19932;-66
2021/08/29 12:36:33;;;;;;;;;;;;;;;19.14;100.00;100680.09;5054248;28;19931;-66
2021/08/29 12:38:59;;;;;;;;;;;;;;;19.18;100.00;100673.19;5054006;28;19931;-66
2021/08/29 12:41:26;;;;;;;;;;;;;;;18.85;100.00;100661.50;5054290;28;20026;-66
2021/08/29 12:43:52;;;;;;;;;;;;;;;18.77;100.00;100667.88;5071450;28;20023;-67
2021/08/29 12:46:19;;;;;;;;;;;;;;;18.80;100.00;100677.66;5053966;28;19924;-66
2021/08/29 12:48:47;;;;;;;;;;;;;;;18.81;100.00;100672.00;5071598;28;19935;-66
2021/08/29 12:51:13;;;;;;;;;;;;;;;18.80;100.00;100670.31;5071797;28;20015;-67
2021/08/29 12:53:41;;;;;;;;;;;;;;;18.87;100.00;100679.53;5070992;28;21541;-66
2021/08/29 12:56:20;;;;;;;;;;;;;;;18.76;100.00;100679.06;5071653;28;19990;-66
2021/08/29 12:58:47;;;;;;;;;;;;;;;18.71;100.00;100676.88;5071573;28;19924;-66
2021/08/29 13:01:14;;;;;;;;;;;;;;;18.68;100.00;100668.97;5072208;28;20031;-66
2021/08/29 13:03:48;;;;;;;;;;;;;;;18.82;100.00;100676.47;5075586;28;19924;-67